Time;durP1;ratioP1;P1;durP2;ratioP2;P2;SDS_P1;SDS_P2;PMS_P1;PMS_P2;Temp;Humidity;BMP_temperature;BMP_pressure;BME280_temperature;BME280_humidity;BME280_pressure;Samples;Min_cycle;Max_cycle;Signal;HPM_P1;HPM_P2
2020/12/30 00:01:25;;;;;;;17.08;10.88;;;5.10;87.10;;;;;;5095904;28;20548;-72
2020/12/30 00:03:51;;;;;;;18.30;10.88;;;5.00;86.90;;;;;;5094425;28;20403;-73
2020/12/30 00:06:17;;;;;;;17.60;10.57;;;5.00;87.50;;;;;;5094686;28;20020;-73
2020/12/30 00:08:44;;;;;;;16.73;11.55;;;4.90;86.90;;;;;;5094791;28;20047;-72
2020/12/30 00:11:10;;;;;;;17.52;12.02;;;4.90;87.00;;;;;;5094516;28;20233;-72
2020/12/30 00:13:35;;;;;;;17.90;11.85;;;4.90;87.00;;;;;;5094406;28;20120;-72
2020/12/30 00:16:01;;;;;;;18.95;11.57;;;4.80;87.00;;;;;;5094633;28;20032;-72
2020/12/30 00:18:27;;;;;;;17.60;11.02;;;4.80;87.00;;;;;;5095462;28;20036;-72
2020/12/30 00:20:53;;;;;;;16.88;10.80;;;4.70;87.00;;;;;;5095646;28;20495;-73
2020/12/30 00:23:18;;;;;;;19.52;12.50;;;4.80;87.10;;;;;;5094248;28;20031;-72
2020/12/30 00:25:44;;;;;;;17.75;11.80;;;4.70;87.00;;;;;;5094158;28;20027;-72
2020/12/30 00:28:09;;;;;;;18.02;11.68;;;4.70;87.10;;;;;;5094764;28;20024;-72
2020/12/30 00:30:35;;;;;;;19.23;12.63;;;4.70;87.20;;;;;;5094030;28;20024;-72
2020/12/30 00:33:01;;;;;;;17.60;12.10;;;4.60;87.20;;;;;;5093971;28;20031;-72
2020/12/30 00:35:26;;;;;;;16.70;12.10;;;4.60;87.20;;;;;;5095527;28;20028;-73
2020/12/30 00:37:52;;;;;;;17.45;12.00;;;4.60;87.20;;;;;;5095952;28;20084;-72
2020/12/30 00:40:18;;;;;;;24.02;13.70;;;4.60;87.20;;;;;;5093614;28;20039;-73
2020/12/30 00:42:43;;;;;;;22.10;13.13;;;4.50;87.20;;;;;;5093977;28;20119;-72
2020/12/30 00:45:10;;;;;;;21.52;12.80;;;4.50;87.20;;;;;;5095003;28;20063;-72
2020/12/30 00:47:36;;;;;;;20.08;12.85;;;4.50;87.20;;;;;;5095073;28;20067;-72
2020/12/30 00:50:04;;;;;;;18.55;12.45;;;4.50;87.20;;;;;;5093714;28;20020;-72
2020/12/30 00:52:30;;;;;;;20.13;12.27;;;4.50;87.20;;;;;;5095173;28;20425;-73
2020/12/30 00:54:55;;;;;;;22.25;12.73;;;4.50;87.20;;;;;;5095012;28;20044;-73
2020/12/30 00:57:21;;;;;;;21.35;13.02;;;4.40;87.20;;;;;;5093792;28;20028;-73
2020/12/30 00:59:47;;;;;;;19.48;13.63;;;4.40;87.20;;;;;;5093583;28;20027;-72
2020/12/30 01:02:12;;;;;;;20.50;13.45;;;4.40;87.20;;;;;;5093303;28;20058;-73
2020/12/30 01:04:38;;;;;;;21.27;13.52;;;4.40;87.20;;;;;;5093393;28;20022;-72
2020/12/30 01:07:04;;;;;;;21.67;13.98;;;4.30;87.10;;;;;;5093489;28;20363;-72
2020/12/30 01:09:29;;;;;;;20.65;14.18;;;4.30;87.10;;;;;;5093346;28;20035;-72
2020/12/30 01:11:59;;;;;;;22.15;12.85;;;4.30;87.80;;;;;;5095123;28;20043;-72
2020/12/30 01:14:25;;;;;;;21.65;14.02;;;4.20;87.20;;;;;;5094652;28;20028;-72
2020/12/30 01:16:52;;;;;;;22.48;13.82;;;4.20;87.20;;;;;;5094591;28;20081;-72
2020/12/30 01:19:18;;;;;;;20.83;13.55;;;4.20;87.30;;;;;;5093383;28;20031;-72
2020/12/30 01:21:44;;;;;;;24.20;15.25;;;4.20;87.30;;;;;;5093174;28;20389;-71
2020/12/30 01:24:10;;;;;;;21.60;14.50;;;4.20;87.30;;;;;;5094535;28;20020;-73
2020/12/30 01:26:37;;;;;;;23.52;14.90;;;4.10;87.30;;;;;;5094246;28;20028;-72
2020/12/30 01:29:07;;;;;;;24.52;15.27;;;4.10;87.30;;;;;;5093398;28;20020;-72
2020/12/30 01:31:34;;;;;;;20.85;14.10;;;4.10;87.30;;;;;;5093015;28;20424;-73
2020/12/30 01:34:01;;;;;;;20.98;14.25;;;4.10;87.30;;;;;;5094374;28;20032;-72
2020/12/30 01:36:27;;;;;;;20.45;14.15;;;4.00;87.30;;;;;;5093048;28;20028;-72
2020/12/30 01:38:54;;;;;;;22.95;14.27;;;4.00;87.40;;;;;;5094138;28;20032;-73
2020/12/30 01:41:20;;;;;;;24.48;14.90;;;4.00;87.40;;;;;;5092697;28;20127;-73
2020/12/30 01:44:01;;;;;;;23.92;14.82;;;4.00;87.40;;;;;;5092602;28;20062;-73
2020/12/30 01:46:43;;;;;;;23.75;14.00;;;4.00;87.40;;;;;;5094104;28;20051;-72
2020/12/30 01:49:11;;;;;;;21.73;14.48;;;4.00;87.40;;;;;;5092507;28;20043;-72
2020/12/30 01:51:39;;;;;;;23.80;15.43;;;3.90;87.40;;;;;;5093209;28;20475;-73
2020/12/30 01:54:05;;;;;;;23.58;15.35;;;3.90;87.40;;;;;;5093921;28;20028;-73
2020/12/30 01:56:33;;;;;;;21.02;14.60;;;4.00;87.50;;;;;;5092567;28;20518;-73
2020/12/30 01:59:01;;;;;;;25.25;14.90;;;4.00;87.50;;;;;;5094183;28;20035;-73
2020/12/30 02:01:29;;;;;;;21.92;14.02;;;4.00;87.40;;;;;;5092332;28;20127;-73
2020/12/30 02:03:57;;;;;;;24.45;14.85;;;4.10;87.20;;;;;;5092185;28;20459;-73
2020/12/30 02:06:24;;;;;;;23.98;14.88;;;4.10;87.10;;;;;;5092842;28;20051;-73
2020/12/30 02:08:50;;;;;;;21.58;14.60;;;4.10;87.00;;;;;;5092307;28;20024;-73
2020/12/30 02:11:16;;;;;;;23.33;14.75;;;4.20;87.00;;;;;;5092620;28;20179;-72
2020/12/30 02:13:42;;;;;;;21.58;14.68;;;4.10;87.00;;;;;;5092033;28;20149;-72
2020/12/30 02:16:07;;;;;;;22.20;14.88;;;4.10;87.00;;;;;;5093408;28;20024;-73
2020/12/30 02:18:33;;;;;;;20.55;14.30;;;4.10;87.10;;;;;;5093394;28;20369;-72
2020/12/30 02:20:59;;;;;;;23.48;15.55;;;4.10;87.20;;;;;;5093241;28;20476;-72
2020/12/30 02:23:27;;;;;;;24.17;15.27;;;4.00;87.10;;;;;;5093634;28;20328;-72
2020/12/30 02:25:52;;;;;;;24.40;14.82;;;4.10;87.20;;;;;;5091966;28;20089;-72
2020/12/30 02:28:18;;;;;;;24.15;15.05;;;4.10;87.10;;;;;;5091816;28;20028;-72
2020/12/30 02:30:43;;;;;;;21.38;14.15;;;4.10;87.00;;;;;;5093243;28;20430;-73
2020/12/30 02:33:09;;;;;;;24.85;15.40;;;4.00;87.00;;;;;;5091987;28;20063;-74
2020/12/30 02:35:35;;;;;;;21.30;14.60;;;4.00;87.00;;;;;;5091836;28;20468;-73
2020/12/30 02:38:01;;;;;;;21.10;14.23;;;4.00;87.00;;;;;;5091723;28;20032;-73
2020/12/30 02:40:27;;;;;;;21.83;13.95;;;4.00;87.10;;;;;;5093187;28;20094;-72
2020/12/30 02:42:52;;;;;;;24.08;15.95;;;4.00;87.10;;;;;;5091586;28;20479;-72
2020/12/30 02:45:19;;;;;;;20.58;14.23;;;3.90;87.00;;;;;;5091718;28;20024;-72
2020/12/30 02:47:44;;;;;;;24.13;14.77;;;3.90;87.10;;;;;;5092870;28;20383;-72
2020/12/30 02:50:10;;;;;;;21.65;14.38;;;3.90;87.20;;;;;;5091598;28;20024;-72
2020/12/30 02:52:36;;;;;;;21.88;14.38;;;3.90;87.20;;;;;;5091546;28;20028;-72
2020/12/30 02:55:02;;;;;;;21.48;13.70;;;3.90;87.20;;;;;;5091667;28;20024;-73
2020/12/30 02:57:28;;;;;;;20.20;14.20;;;3.90;87.20;;;;;;5091527;28;20035;-73
2020/12/30 02:59:56;;;;;;;23.40;14.55;;;3.80;87.20;;;;;;5091355;28;20036;-72
2020/12/30 03:02:25;;;;;;;22.52;14.55;;;3.80;87.30;;;;;;5095035;28;20040;-73
2020/12/30 03:04:52;;;;;;;22.23;14.70;;;3.80;87.30;;;;;;5098296;28;20048;-72
2020/12/30 03:07:19;;;;;;;24.25;15.40;;;3.80;87.20;;;;;;5098407;28;20024;-72
2020/12/30 03:09:44;;;;;;;22.15;14.27;;;3.80;87.20;;;;;;5099589;28;20103;-72
2020/12/30 03:12:10;;;;;;;25.75;15.25;;;3.80;87.20;;;;;;5099708;28;20116;-73
2020/12/30 03:14:36;;;;;;;23.27;14.30;;;3.70;87.20;;;;;;5099470;28;20024;-72
2020/12/30 03:17:01;;;;;;;22.42;14.40;;;3.70;87.20;;;;;;5097996;28;20024;-73
2020/12/30 03:19:27;;;;;;;24.98;15.80;;;3.70;87.20;;;;;;5098066;28;20024;-73
2020/12/30 03:21:53;;;;;;;20.30;13.85;;;3.70;87.30;;;;;;5099367;28;20031;-72
2020/12/30 03:24:19;;;;;;;25.83;15.05;;;3.70;87.20;;;;;;5097878;28;20391;-72
2020/12/30 03:26:44;;;;;;;20.88;14.02;;;3.80;87.20;;;;;;5099248;28;20020;-72
2020/12/30 03:29:10;;;;;;;21.60;14.05;;;3.90;87.40;;;;;;5099123;28;20020;-73
2020/12/30 03:31:36;;;;;;;21.58;13.75;;;3.90;87.10;;;;;;5097924;28;20437;-73
2020/12/30 03:34:01;;;;;;;19.52;13.75;;;4.00;87.00;;;;;;5099376;28;20024;-72
2020/12/30 03:36:27;;;;;;;19.65;13.30;;;4.00;86.90;;;;;;5099463;28;20368;-72
2020/12/30 03:38:53;;;;;;;20.75;13.20;;;4.10;86.80;;;;;;5099022;28;20039;-73
2020/12/30 03:41:19;;;;;;;20.63;14.18;;;4.20;86.80;;;;;;5099147;28;20072;-72
2020/12/30 03:43:44;;;;;;;20.85;13.55;;;4.20;86.70;;;;;;5099048;28;20110;-73
2020/12/30 03:46:10;;;;;;;18.70;12.70;;;4.20;86.70;;;;;;5097725;28;20411;-73
2020/12/30 03:48:36;;;;;;;19.38;12.40;;;4.30;86.60;;;;;;5098963;28;20024;-72
2020/12/30 03:51:02;;;;;;;22.42;13.38;;;4.30;86.60;;;;;;5097966;28;20114;-72
2020/12/30 03:53:27;;;;;;;18.67;12.68;;;4.40;86.60;;;;;;5098924;28;20478;-72
2020/12/30 03:55:53;;;;;;;19.13;12.32;;;4.40;86.50;;;;;;5098958;28;20492;-74
2020/12/30 03:58:19;;;;;;;20.70;13.02;;;4.40;86.40;;;;;;5098982;28;20039;-73
2020/12/30 04:00:45;;;;;;;20.88;13.30;;;4.50;86.40;;;;;;5097518;28;20455;-73
2020/12/30 04:03:11;;;;;;;24.33;14.15;;;4.50;86.40;;;;;;5097533;28;20075;-73
2020/12/30 04:05:37;;;;;;;20.23;13.75;;;4.50;86.30;;;;;;5097594;28;20103;-73
2020/12/30 04:08:03;;;;;;;18.77;12.70;;;4.50;86.20;;;;;;5098479;28;20028;-73
2020/12/30 04:10:28;;;;;;;21.60;13.27;;;4.60;86.30;;;;;;5098312;28;20028;-73
2020/12/30 04:12:54;;;;;;;20.15;13.23;;;4.60;86.30;;;;;;5097539;28;20028;-74
2020/12/30 04:15:19;;;;;;;17.35;11.98;;;4.60;86.30;;;;;;5095130;28;20047;-73
2020/12/30 04:17:45;;;;;;;20.35;12.98;;;4.60;86.30;;;;;;5096194;28;20423;-73
2020/12/30 04:20:11;;;;;;;19.58;13.18;;;4.60;86.20;;;;;;5095431;28;20036;-74
2020/12/30 04:22:36;;;;;;;21.55;13.40;;;4.70;86.20;;;;;;5094071;28;20160;-73
2020/12/30 04:25:02;;;;;;;20.70;12.93;;;4.70;86.20;;;;;;5094075;28;20024;-73
2020/12/30 04:27:28;;;;;;;18.15;12.57;;;4.70;86.00;;;;;;5094024;28;20030;-73
2020/12/30 04:29:54;;;;;;;19.83;13.93;;;4.70;86.10;;;;;;5095371;28;20102;-73
2020/12/30 04:32:19;;;;;;;21.25;12.77;;;4.60;86.10;;;;;;5095403;28;20126;-74
2020/12/30 04:34:45;;;;;;;18.73;13.07;;;4.70;86.20;;;;;;5093951;28;20487;-74
2020/12/30 04:37:12;;;;;;;19.77;12.25;;;4.60;86.20;;;;;;5093787;28;20043;-74
2020/12/30 04:39:38;;;;;;;19.23;13.52;;;4.60;86.30;;;;;;5093632;28;20024;-73
2020/12/30 04:42:05;;;;;;;18.38;13.00;;;4.60;86.30;;;;;;5095204;28;20046;-74
2020/12/30 04:44:33;;;;;;;22.60;14.57;;;4.50;86.30;;;;;;5095047;28;20020;-74
2020/12/30 04:47:00;;;;;;;21.70;14.13;;;4.50;86.30;;;;;;5095080;28;20484;-73
2020/12/30 04:49:25;;;;;;;21.98;13.20;;;4.50;86.40;;;;;;5093678;28;20127;-74
2020/12/30 04:51:53;;;;;;;19.20;13.60;;;4.50;86.40;;;;;;5094909;28;20109;-73
2020/12/30 04:54:21;;;;;;;20.70;12.80;;;4.50;86.40;;;;;;5093609;28;20032;-74
2020/12/30 04:56:57;;;;;;;18.98;12.70;;;4.60;86.50;;;;;;5093392;28;20031;-73
2020/12/30 04:59:26;;;;;;;19.80;13.35;;;4.60;86.40;;;;;;5093469;28;20027;-74
2020/12/30 05:02:11;;;;;;;21.60;14.02;;;4.60;86.40;;;;;;5094781;28;20475;-73
2020/12/30 05:04:38;;;;;;;21.17;12.95;;;4.60;86.30;;;;;;5094680;28;20483;-74
2020/12/30 05:07:12;;;;;;;19.92;13.52;;;4.70;86.40;;;;;;5093383;28;20032;-74
2020/12/30 05:09:39;;;;;;;22.05;13.43;;;4.70;86.40;;;;;;5094685;28;20023;-74
2020/12/30 05:12:17;;;;;;;21.27;12.93;;;4.70;86.30;;;;;;5093368;28;20144;-73
2020/12/30 05:14:43;;;;;;;21.33;13.35;;;4.70;86.20;;;;;;5093251;28;20051;-74
2020/12/30 05:17:10;;;;;;;21.10;13.65;;;4.70;86.20;;;;;;5093283;28;20024;-73
2020/12/30 05:19:36;;;;;;;18.60;13.15;;;4.70;86.30;;;;;;5093072;28;20107;-73
2020/12/30 05:22:02;;;;;;;21.25;14.65;;;4.70;86.30;;;;;;5095023;28;20040;-73
2020/12/30 05:24:28;;;;;;;19.20;12.60;;;4.70;86.30;;;;;;5094608;28;20024;-73
2020/12/30 05:26:55;;;;;;;20.50;13.63;;;4.70;86.20;;;;;;5091902;28;20436;-73
2020/12/30 05:29:23;;;;;;;18.50;13.13;;;4.70;86.30;;;;;;5094534;28;20051;-74
2020/12/30 05:31:51;;;;;;;20.20;13.18;;;4.70;86.40;;;;;;5093821;28;20034;-74
2020/12/30 05:34:18;;;;;;;20.27;13.45;;;4.70;86.40;;;;;;5094137;28;20032;-73
2020/12/30 05:36:47;;;;;;;19.85;13.88;;;4.70;86.30;;;;;;5092723;28;20076;-73
2020/12/30 05:39:30;;;;;;;20.40;13.43;;;4.70;86.30;;;;;;5092784;28;20504;-74
2020/12/30 05:42:12;;;;;;;21.65;13.80;;;4.70;87.00;;;;;;5092582;28;20028;-73
2020/12/30 05:44:39;;;;;;;19.77;13.38;;;4.70;86.30;;;;;;5093016;28;20459;-73
2020/12/30 05:47:16;;;;;;;19.63;13.77;;;4.70;86.40;;;;;;5093983;28;20016;-74
2020/12/30 05:49:43;;;;;;;21.38;13.50;;;4.70;86.50;;;;;;5092514;28;20043;-73
2020/12/30 05:52:14;;;;;;;19.30;12.77;;;4.80;86.50;;;;;;5094257;28;20024;-74
2020/12/30 05:54:46;;;;;;;18.85;13.10;;;4.80;86.50;;;;;;5092445;28;20084;-74
2020/12/30 05:57:19;;;;;;;18.75;13.10;;;4.80;86.50;;;;;;5092726;28;20031;-73
2020/12/30 05:59:45;;;;;;;16.70;11.75;;;4.90;86.50;;;;;;5093944;28;20166;-74
2020/12/30 06:02:12;;;;;;;18.58;11.80;;;4.90;86.50;;;;;;5093304;28;20027;-74
2020/12/30 06:04:38;;;;;;;22.05;13.38;;;4.90;86.40;;;;;;5092001;28;20043;-74
2020/12/30 06:07:03;;;;;;;24.88;13.90;;;4.90;86.40;;;;;;5092255;28;20032;-73
2020/12/30 06:09:37;;;;;;;18.30;11.63;;;4.90;86.50;;;;;;5092152;28;20381;-74
2020/12/30 06:12:06;;;;;;;17.80;12.55;;;4.90;86.50;;;;;;5093510;28;20035;-74
2020/12/30 06:14:32;;;;;;;20.67;12.60;;;4.90;86.60;;;;;;5092140;28;20118;-73
2020/12/30 06:17:01;;;;;;;20.63;13.00;;;4.90;86.60;;;;;;5091964;28;20024;-74
2020/12/30 06:19:27;;;;;;;19.95;12.32;;;4.90;86.50;;;;;;5092115;28;20149;-73
2020/12/30 06:21:53;;;;;;;18.35;12.93;;;5.00;86.60;;;;;;5093190;28;20020;-73
2020/12/30 06:24:19;;;;;;;19.08;13.43;;;5.00;86.60;;;;;;5092073;28;20069;-73
2020/12/30 06:26:45;;;;;;;18.52;13.00;;;5.00;86.50;;;;;;5091834;28;20448;-73
2020/12/30 06:29:15;;;;;;;16.98;12.15;;;4.90;86.50;;;;;;5093158;28;20031;-73
2020/12/30 06:31:47;;;;;;;19.40;12.45;;;4.90;86.60;;;;;;5091869;28;20050;-74
2020/12/30 06:34:13;;;;;;;22.02;13.32;;;4.90;86.70;;;;;;5093246;28;20028;-73
2020/12/30 06:36:40;;;;;;;19.50;12.43;;;4.90;86.70;;;;;;5091365;28;20520;-74
2020/12/30 06:39:23;;;;;;;17.70;12.50;;;5.00;86.70;;;;;;5091791;28;20024;-74
2020/12/30 06:42:00;;;;;;;18.70;13.15;;;5.00;86.70;;;;;;5091521;28;20028;-73
2020/12/30 06:44:39;;;;;;;20.25;13.82;;;5.00;86.70;;;;;;5092893;28;20020;-73
2020/12/30 06:47:07;;;;;;;19.98;13.25;;;5.00;86.50;;;;;;5091684;28;20024;-73
2020/12/30 06:49:33;;;;;;;17.38;12.40;;;5.00;86.60;;;;;;5092952;28;20024;-73
2020/12/30 06:51:59;;;;;;;18.98;12.60;;;5.00;86.60;;;;;;5093581;28;20032;-73
2020/12/30 06:55:03;;;;;;;20.08;12.63;;;4.90;86.50;;;;;;5091544;28;20069;-74
2020/12/30 06:57:39;;;;;;;17.98;12.15;;;5.00;86.70;;;;;;5070484;28;20064;-73
2020/12/30 07:00:27;;;;;;;19.90;12.75;;;5.00;86.70;;;;;;5070571;28;20491;-74
2020/12/30 07:03:15;;;;;;;20.35;12.63;;;5.00;86.70;;;;;;5070461;28;20040;-74
2020/12/30 07:05:42;;;;;;;15.70;11.25;;;5.00;86.70;;;;;;5053491;28;20082;-74
2020/12/30 07:08:08;;;;;;;22.90;14.45;;;5.10;86.70;;;;;;5054018;28;20472;-74
2020/12/30 07:10:44;;;;;;;17.67;12.18;;;5.10;86.60;;;;;;5053586;28;20115;-73
2020/12/30 07:13:26;;;;;;;18.98;13.38;;;5.10;86.60;;;;;;5053537;28;20043;-73
2020/12/30 07:16:13;;;;;;;18.80;11.80;;;5.10;86.60;;;;;;5053507;28;20037;-73
2020/12/30 07:18:41;;;;;;;16.60;11.93;;;5.10;86.60;;;;;;5070309;28;20062;-74
2020/12/30 07:21:14;;;;;;;18.73;12.82;;;5.10;86.70;;;;;;5070361;28;20063;-73
2020/12/30 07:23:41;;;;;;;15.38;11.35;;;5.10;86.70;;;;;;5053396;28;20189;-73
2020/12/30 07:26:16;;;;;;;16.73;11.77;;;5.10;86.70;;;;;;5070324;28;20054;-73
2020/12/30 07:28:43;;;;;;;19.45;12.68;;;5.10;86.70;;;;;;5078919;28;20036;-73
2020/12/30 07:31:09;;;;;;;17.15;11.70;;;5.20;86.70;;;;;;5092643;28;20107;-73
2020/12/30 07:33:37;;;;;;;15.63;11.40;;;5.20;86.60;;;;;;5091252;28;20448;-73
2020/12/30 07:36:12;;;;;;;15.70;10.75;;;5.20;86.60;;;;;;5092545;28;20059;-73
2020/12/30 07:38:38;;;;;;;18.88;11.85;;;5.20;86.60;;;;;;5091115;28;20024;-73
2020/12/30 07:41:04;;;;;;;15.50;11.00;;;5.20;86.60;;;;;;5092490;28;20468;-74
2020/12/30 07:43:29;;;;;;;16.67;11.68;;;5.20;86.70;;;;;;5092303;28;20065;-73
2020/12/30 07:46:13;;;;;;;17.42;11.88;;;5.20;86.70;;;;;;5092308;28;20456;-73
2020/12/30 07:48:39;;;;;;;14.93;10.70;;;5.20;86.70;;;;;;5091043;28;20096;-73
2020/12/30 07:51:05;;;;;;;16.27;10.73;;;5.20;86.60;;;;;;5094891;28;20028;-74
2020/12/30 07:53:31;;;;;;;19.27;12.20;;;5.20;87.20;;;;;;5096344;28;20525;-73
2020/12/30 07:55:56;;;;;;;13.43;9.75;;;5.20;86.50;;;;;;5094547;28;20026;-73
2020/12/30 07:58:24;;;;;;;14.57;9.88;;;5.20;86.50;;;;;;5095917;28;20447;-74
2020/12/30 08:00:52;;;;;;;14.68;10.90;;;5.30;86.60;;;;;;5094667;28;20494;-73
2020/12/30 08:03:21;;;;;;;14.73;10.10;;;5.30;86.50;;;;;;5094129;28;20044;-73
2020/12/30 08:05:50;;;;;;;15.75;10.98;;;5.30;86.50;;;;;;5094513;28;20028;-74
2020/12/30 08:08:19;;;;;;;16.73;10.77;;;5.30;86.50;;;;;;5095866;28;20021;-74
2020/12/30 08:10:55;;;;;;;15.52;11.00;;;5.30;86.50;;;;;;5094242;28;20552;-73
2020/12/30 08:13:20;;;;;;;14.73;10.38;;;5.30;86.50;;;;;;5095413;28;20032;-73
2020/12/30 08:15:52;;;;;;;16.02;10.95;;;5.40;86.60;;;;;;5094007;28;20058;-73
2020/12/30 08:18:18;;;;;;;19.75;11.82;;;5.40;86.60;;;;;;5095399;28;20062;-73
2020/12/30 08:20:44;;;;;;;15.82;11.18;;;5.30;86.50;;;;;;5093796;28;20052;-74
2020/12/30 08:23:10;;;;;;;14.13;10.77;;;5.30;86.70;;;;;;5093921;28;20089;-74
2020/12/30 08:25:36;;;;;;;17.60;11.30;;;5.30;86.90;;;;;;5093795;28;20028;-73
2020/12/30 08:28:05;;;;;;;13.80;9.68;;;5.40;87.00;;;;;;5093803;28;20028;-74
2020/12/30 08:30:34;;;;;;;16.60;11.07;;;5.40;87.00;;;;;;5095264;28;20360;-73
2020/12/30 08:33:10;;;;;;;14.98;11.02;;;5.40;87.00;;;;;;5095130;28;20387;-74
2020/12/30 08:36:00;;;;;;;14.50;9.48;;;5.40;87.00;;;;;;5095518;28;20023;-73
2020/12/30 08:38:27;;;;;;;16.13;11.48;;;5.50;87.10;;;;;;5095024;28;20074;-73
2020/12/30 08:40:54;;;;;;;14.48;10.20;;;5.50;87.00;;;;;;5093640;28;20031;-74
2020/12/30 08:43:42;;;;;;;13.23;9.73;;;5.50;87.10;;;;;;5095311;28;20016;-74
2020/12/30 08:46:26;;;;;;;14.70;10.38;;;5.50;87.10;;;;;;5094740;28;20032;-74
2020/12/30 08:48:53;;;;;;;14.07;9.15;;;5.50;87.00;;;;;;5094865;28;20105;-74
2020/12/30 08:51:26;;;;;;;16.08;11.38;;;5.60;87.10;;;;;;5094714;28;20399;-74
2020/12/30 08:53:52;;;;;;;;;;;5.50;87.00;;;;;;5093753;28;20055;-74
2020/12/30 08:56:19;;;;;;;14.73;10.40;;;5.60;87.00;;;;;;5094709;28;20359;-74
2020/12/30 08:58:55;;;;;;;15.18;10.32;;;5.60;86.90;;;;;;5094638;28;20432;-74
2020/12/30 09:01:22;;;;;;;14.05;10.15;;;5.60;87.00;;;;;;5093000;28;20425;-73
2020/12/30 09:03:48;;;;;;;15.73;10.88;;;5.60;87.00;;;;;;5093403;28;20155;-73
2020/12/30 09:06:25;;;;;;;15.85;11.85;;;5.60;86.90;;;;;;5093325;28;20012;-73
2020/12/30 09:08:51;;;;;;;19.40;12.70;;;5.60;86.80;;;;;;5093213;28;20368;-73
2020/12/30 09:11:17;;;;;;;22.38;13.63;;;5.60;86.90;;;;;;5093131;28;20031;-74
2020/12/30 09:13:43;;;;;;;17.02;12.38;;;5.60;86.80;;;;;;5093101;28;20020;-73
2020/12/30 09:16:10;;;;;;;15.23;11.13;;;5.60;86.90;;;;;;5093589;28;20034;-75
2020/12/30 09:18:36;;;;;;;51.45;12.82;;;5.60;87.00;;;;;;5093136;28;20024;-74
2020/12/30 09:21:18;;;;;;;17.42;12.45;;;5.60;87.00;;;;;;5094282;28;20077;-74
2020/12/30 09:23:44;;;;;;;18.70;13.65;;;5.60;87.00;;;;;;5094303;28;20361;-74
2020/12/30 09:26:09;;;;;;;18.20;12.35;;;5.60;86.90;;;;;;5094483;28;20023;-73
2020/12/30 09:28:35;;;;;;;17.95;12.35;;;5.50;87.60;;;;;;5092791;28;20035;-74
2020/12/30 09:31:06;;;;;;;17.52;11.32;;;5.60;87.10;;;;;;5094361;28;20413;-73
2020/12/30 09:33:33;;;;;;;16.08;11.50;;;5.60;87.10;;;;;;5092744;28;20111;-73
2020/12/30 09:36:06;;;;;;;15.45;11.93;;;5.70;87.10;;;;;;5094008;28;20016;-73
2020/12/30 09:38:32;;;;;;;;;;;5.70;87.00;;;;;;5094349;28;20028;-74
2020/12/30 09:40:57;;;;;;;21.30;13.45;;;5.80;87.00;;;;;;5092447;28;20011;-73
2020/12/30 09:43:26;;;;;;;17.27;12.57;;;5.80;86.90;;;;;;5092850;28;20040;-73
2020/12/30 09:46:00;;;;;;;17.80;11.68;;;5.80;86.70;;;;;;5092498;28;20020;-73
2020/12/30 09:48:26;;;;;;;18.98;12.73;;;5.80;86.80;;;;;;5093972;28;20020;-73
2020/12/30 09:50:53;;;;;;;19.85;12.30;;;5.80;86.90;;;;;;5093664;28;20020;-74
2020/12/30 09:53:19;;;;;;;18.38;12.77;;;5.90;86.80;;;;;;5093952;28;20031;-74
2020/12/30 09:55:45;;;;;;;17.27;12.48;;;5.90;86.80;;;;;;5093504;28;20028;-73
2020/12/30 09:58:12;;;;;;;15.27;11.23;;;5.90;86.90;;;;;;5092307;28;20025;-73
2020/12/30 10:00:37;;;;;;;16.63;11.60;;;6.00;86.80;;;;;;5094518;28;20024;-73
2020/12/30 10:03:03;;;;;;;16.45;11.38;;;6.00;86.80;;;;;;5092304;28;20502;-73
2020/12/30 10:05:29;;;;;;;20.13;12.85;;;6.10;86.80;;;;;;5092776;28;20024;-73
2020/12/30 10:07:54;;;;;;;17.63;12.23;;;6.10;86.60;;;;;;5092502;28;20056;-74
2020/12/30 10:10:20;;;;;;;18.33;12.85;;;6.20;86.60;;;;;;5092236;28;20058;-73
2020/12/30 10:12:46;;;;;;;16.75;12.00;;;6.20;86.50;;;;;;5091503;28;20036;-73
2020/12/30 10:15:12;;;;;;;19.77;13.20;;;6.10;86.40;;;;;;5093546;28;20447;-73
2020/12/30 10:17:38;;;;;;;14.60;10.70;;;6.10;86.50;;;;;;5092228;28;20548;-73
2020/12/30 10:20:08;;;;;;;15.23;11.45;;;6.10;86.70;;;;;;5093453;28;20035;-74
2020/12/30 10:22:52;;;;;;;17.63;12.15;;;6.10;86.70;;;;;;5091973;28;20034;-74
2020/12/30 10:25:18;;;;;;;;;;;6.10;86.70;;;;;;5093584;28;20050;-74
2020/12/30 10:27:45;;;;;;;19.45;12.30;;;6.10;86.70;;;;;;5091846;28;19908;-74
2020/12/30 10:30:11;;;;;;;17.27;11.93;;;6.10;86.70;;;;;;5093416;28;20490;-74
2020/12/30 10:32:38;;;;;;;16.30;12.13;;;6.10;86.70;;;;;;5093421;28;20032;-74
2020/12/30 10:35:05;;;;;;;16.70;12.20;;;6.00;86.70;;;;;;5093842;28;20328;-73
2020/12/30 10:37:31;;;;;;;17.45;12.43;;;6.10;86.80;;;;;;5091842;28;20028;-74
2020/12/30 10:39:56;;;;;;;18.00;13.35;;;6.00;86.70;;;;;;5091857;28;20035;-74
2020/12/30 10:42:22;;;;;;;16.95;11.68;;;6.00;86.70;;;;;;5093191;28;20072;-74
2020/12/30 10:44:47;;;;;;;19.70;11.85;;;6.00;86.70;;;;;;5093304;28;20036;-74
2020/12/30 10:47:13;;;;;;;18.77;12.25;;;6.00;86.90;;;;;;5091750;28;20505;-73
2020/12/30 10:49:39;;;;;;;16.40;12.20;;;6.10;86.80;;;;;;5091422;28;20030;-74
2020/12/30 10:52:05;;;;;;;14.30;10.43;;;6.10;86.80;;;;;;5093023;28;20024;-74
2020/12/30 10:54:31;;;;;;;16.05;11.02;;;6.20;86.90;;;;;;5091462;28;20016;-73
2020/12/30 10:56:56;;;;;;;14.90;10.38;;;6.20;86.80;;;;;;5091357;28;20479;-74
2020/12/30 10:59:22;;;;;;;14.32;11.43;;;6.20;86.70;;;;;;5091661;28;20563;-74
2020/12/30 11:01:52;;;;;;;15.50;11.57;;;6.30;86.70;;;;;;5091425;28;20028;-73
2020/12/30 11:04:19;;;;;;;13.93;10.93;;;6.30;86.70;;;;;;5092764;28;20201;-74
2020/12/30 11:06:44;;;;;;;16.33;11.70;;;6.30;86.60;;;;;;5091398;28;20012;-73
2020/12/30 11:09:10;;;;;;;16.58;10.93;;;6.40;86.60;;;;;;5091314;28;20298;-73
2020/12/30 11:11:36;;;;;;;17.73;12.25;;;6.30;86.50;;;;;;5092727;28;20095;-74
2020/12/30 11:14:02;;;;;;;15.25;10.65;;;6.30;86.60;;;;;;5091344;28;20031;-73
2020/12/30 11:16:28;;;;;;;15.18;10.85;;;6.40;86.60;;;;;;5091271;28;20020;-73
2020/12/30 11:18:54;;;;;;;17.98;11.63;;;6.40;86.60;;;;;;5091309;28;20035;-73
2020/12/30 11:21:19;;;;;;;14.23;10.82;;;6.40;86.50;;;;;;5091161;28;20024;-73
2020/12/30 11:23:45;;;;;;;16.92;11.88;;;6.40;86.70;;;;;;5093086;28;20020;-73
2020/12/30 11:26:11;;;;;;;17.08;12.70;;;6.50;86.60;;;;;;5095290;28;20020;-74
2020/12/30 11:28:37;;;;;;;17.45;12.32;;;6.60;86.40;;;;;;5095185;28;20020;-74
2020/12/30 11:31:03;;;;;;;15.07;11.85;;;6.50;86.20;;;;;;5096796;28;20028;-73
2020/12/30 11:33:29;;;;;;;14.90;11.10;;;6.60;86.30;;;;;;5096598;28;20028;-74
2020/12/30 11:35:55;;;;;;;13.88;10.57;;;6.60;86.20;;;;;;5095157;28;20495;-74
2020/12/30 11:38:20;;;;;;;13.32;10.52;;;6.60;86.30;;;;;;5097057;28;20031;-74
2020/12/30 11:40:46;;;;;;;15.95;12.15;;;6.60;86.20;;;;;;5096253;28;20512;-73
2020/12/30 11:43:12;;;;;;;16.27;12.48;;;6.60;86.20;;;;;;5094991;28;20096;-73
2020/12/30 11:45:38;;;;;;;16.35;11.52;;;6.60;86.10;;;;;;5094860;28;20016;-74
2020/12/30 11:48:04;;;;;;;14.98;10.70;;;6.60;86.30;;;;;;5094886;28;20129;-74
2020/12/30 11:50:32;;;;;;;14.18;10.88;;;6.60;86.30;;;;;;5096146;28;20041;-73
2020/12/30 11:52:58;;;;;;;14.57;11.02;;;6.60;86.40;;;;;;5096087;28;20028;-74
2020/12/30 11:55:25;;;;;;;14.05;9.75;;;6.60;86.40;;;;;;5094782;28;20027;-74
2020/12/30 11:57:51;;;;;;;13.48;10.57;;;6.60;86.40;;;;;;5094564;28;20112;-73
2020/12/30 12:00:17;;;;;;;12.55;9.60;;;6.60;86.30;;;;;;5095851;28;20103;-73
2020/12/30 12:02:46;;;;;;;12.77;9.70;;;6.60;86.30;;;;;;5094581;28;20375;-73
2020/12/30 12:05:12;;;;;;;14.52;10.65;;;6.70;86.40;;;;;;5094712;28;20081;-73
2020/12/30 12:07:38;;;;;;;11.75;9.95;;;6.70;86.30;;;;;;5095768;28;20107;-73
2020/12/30 12:10:05;;;;;;;13.05;9.73;;;6.80;86.30;;;;;;5095763;28;20024;-73
2020/12/30 12:12:31;;;;;;;11.75;8.65;;;6.80;86.30;;;;;;5095911;28;20061;-73
2020/12/30 12:14:57;;;;;;;12.27;8.43;;;6.90;86.30;;;;;;5094593;28;20418;-73
2020/12/30 12:17:22;;;;;;;13.45;9.25;;;6.90;86.30;;;;;;5094558;28;20469;-73
2020/12/30 12:19:48;;;;;;;12.32;9.25;;;6.90;86.10;;;;;;5095571;28;20024;-73
2020/12/30 12:22:14;;;;;;;12.23;8.27;;;7.00;86.10;;;;;;5095705;28;20023;-73
2020/12/30 12:24:40;;;;;;;13.25;8.75;;;7.00;86.10;;;;;;5094281;28;20024;-74
2020/12/30 12:27:06;;;;;;;11.52;7.50;;;7.10;86.10;;;;;;5094182;28;20054;-74
2020/12/30 12:29:34;;;;;;;9.02;6.90;;;7.00;85.90;;;;;;5094137;28;20410;-73
2020/12/30 12:32:03;;;;;;;10.95;6.70;;;7.00;86.00;;;;;;5095841;28;20387;-73
2020/12/30 12:34:29;;;;;;;8.18;6.70;;;7.00;86.00;;;;;;5095198;28;20032;-74
2020/12/30 12:36:55;;;;;;;7.53;5.63;;;7.00;86.00;;;;;;5093837;28;20479;-74
2020/12/30 12:39:21;;;;;;;7.05;5.70;;;7.00;86.10;;;;;;5094012;28;20055;-73
2020/12/30 12:41:49;;;;;;;8.45;6.00;;;7.10;86.10;;;;;;5093659;28;20024;-74